sensor_id;sensor_type;location;lat;lon;timestamp;P1;durP1;ratioP1;P2;durP2;ratioP2
76063;SDS011;64762;52.006;8.424;2022-12-18T00:01:04;4.25;;;1.75;;
76063;SDS011;64762;52.006;8.424;2022-12-18T00:03:34;5.10;;;2.17;;
76063;SDS011;64762;52.006;8.424;2022-12-18T00:06:00;5.10;;;1.73;;
76063;SDS011;64762;52.006;8.424;2022-12-18T00:08:26;7.27;;;2.93;;
76063;SDS011;64762;52.006;8.424;2022-12-18T00:10:52;3.45;;;1.83;;
76063;SDS011;64762;52.006;8.424;2022-12-18T00:13:17;4.10;;;1.93;;
76063;SDS011;64762;52.006;8.424;2022-12-18T00:15:42;3.77;;;1.80;;
76063;SDS011;64762;52.006;8.424;2022-12-18T00:18:08;5.33;;;1.70;;
76063;SDS011;64762;52.006;8.424;2022-12-18T00:20:37;3.70;;;1.77;;
76063;SDS011;64762;52.006;8.424;2022-12-18T00:23:03;3.95;;;1.60;;
76063;SDS011;64762;52.006;8.424;2022-12-18T00:25:28;4.97;;;2.17;;
76063;SDS011;64762;52.006;8.424;2022-12-18T00:27:53;5.20;;;2.03;;
76063;SDS011;64762;52.006;8.424;2022-12-18T00:30:19;3.73;;;1.83;;
76063;SDS011;64762;52.006;8.424;2022-12-18T00:32:44;6.33;;;2.20;;
76063;SDS011;64762;52.006;8.424;2022-12-18T00:35:09;4.65;;;1.73;;
76063;SDS011;64762;52.006;8.424;2022-12-18T00:37:35;4.73;;;1.90;;
76063;SDS011;64762;52.006;8.424;2022-12-18T00:40:01;3.88;;;1.70;;
76063;SDS011;64762;52.006;8.424;2022-12-18T00:42:26;4.28;;;1.90;;
76063;SDS011;64762;52.006;8.424;2022-12-18T00:45:10;4.28;;;1.77;;
76063;SDS011;64762;52.006;8.424;2022-12-18T00:47:35;5.30;;;1.80;;
76063;SDS011;64762;52.006;8.424;2022-12-18T00:50:01;2.93;;;1.67;;
76063;SDS011;64762;52.006;8.424;2022-12-18T00:52:26;6.03;;;1.77;;
76063;SDS011;64762;52.006;8.424;2022-12-18T00:54:51;7.00;;;1.90;;
76063;SDS011;64762;52.006;8.424;2022-12-18T00:57:17;7.20;;;1.67;;
76063;SDS011;64762;52.006;8.424;2022-12-18T00:59:42;4.87;;;1.77;;
76063;SDS011;64762;52.006;8.424;2022-12-18T01:02:07;5.40;;;1.30;;
76063;SDS011;64762;52.006;8.424;2022-12-18T01:04:33;2.77;;;1.70;;
76063;SDS011;64762;52.006;8.424;2022-12-18T01:06:58;2.85;;;1.35;;
76063;SDS011;64762;52.006;8.424;2022-12-18T01:09:23;3.97;;;1.80;;
76063;SDS011;64762;52.006;8.424;2022-12-18T01:11:49;2.97;;;1.50;;
76063;SDS011;64762;52.006;8.424;2022-12-18T01:14:15;3.70;;;1.55;;
76063;SDS011;64762;52.006;8.424;2022-12-18T01:16:40;4.53;;;2.20;;
76063;SDS011;64762;52.006;8.424;2022-12-18T01:19:06;3.87;;;1.70;;
76063;SDS011;64762;52.006;8.424;2022-12-18T01:21:31;2.60;;;1.23;;
76063;SDS011;64762;52.006;8.424;2022-12-18T01:23:57;6.27;;;1.97;;
76063;SDS011;64762;52.006;8.424;2022-12-18T01:26:22;3.58;;;1.75;;
76063;SDS011;64762;52.006;8.424;2022-12-18T01:28:48;3.63;;;1.73;;
76063;SDS011;64762;52.006;8.424;2022-12-18T01:33:44;3.67;;;1.38;;
76063;SDS011;64762;52.006;8.424;2022-12-18T01:36:14;3.70;;;1.77;;
76063;SDS011;64762;52.006;8.424;2022-12-18T01:38:47;3.30;;;1.23;;
76063;SDS011;64762;52.006;8.424;2022-12-18T01:41:13;4.35;;;1.73;;
76063;SDS011;64762;52.006;8.424;2022-12-18T01:43:43;4.00;;;1.73;;
76063;SDS011;64762;52.006;8.424;2022-12-18T01:46:09;3.92;;;1.98;;
76063;SDS011;64762;52.006;8.424;2022-12-18T01:48:35;3.70;;;1.40;;
76063;SDS011;64762;52.006;8.424;2022-12-18T01:51:00;3.30;;;1.65;;
76063;SDS011;64762;52.006;8.424;2022-12-18T01:53:26;3.03;;;1.40;;
76063;SDS011;64762;52.006;8.424;2022-12-18T01:55:52;2.92;;;1.40;;
76063;SDS011;64762;52.006;8.424;2022-12-18T01:58:19;3.22;;;1.40;;
76063;SDS011;64762;52.006;8.424;2022-12-18T02:00:45;5.43;;;1.88;;
76063;SDS011;64762;52.006;8.424;2022-12-18T02:03:10;3.78;;;1.75;;
76063;SDS011;64762;52.006;8.424;2022-12-18T02:08:12;2.97;;;1.20;;
76063;SDS011;64762;52.006;8.424;2022-12-18T02:16:38;3.35;;;1.65;;
76063;SDS011;64762;52.006;8.424;2022-12-18T02:19:14;3.10;;;1.70;;
76063;SDS011;64762;52.006;8.424;2022-12-18T02:21:48;5.10;;;1.85;;
76063;SDS011;64762;52.006;8.424;2022-12-18T02:27:06;3.30;;;1.50;;
76063;SDS011;64762;52.006;8.424;2022-12-18T02:29:44;3.70;;;1.70;;
76063;SDS011;64762;52.006;8.424;2022-12-18T02:32:14;4.28;;;1.50;;
76063;SDS011;64762;52.006;8.424;2022-12-18T02:34:41;6.10;;;1.88;;
76063;SDS011;64762;52.006;8.424;2022-12-18T02:37:16;3.92;;;1.38;;
76063;SDS011;64762;52.006;8.424;2022-12-18T02:39:43;3.50;;;1.65;;
76063;SDS011;64762;52.006;8.424;2022-12-18T02:42:10;3.65;;;1.25;;
76063;SDS011;64762;52.006;8.424;2022-12-18T02:44:45;3.85;;;1.38;;
76063;SDS011;64762;52.006;8.424;2022-12-18T02:47:12;3.65;;;1.83;;
76063;SDS011;64762;52.006;8.424;2022-12-18T02:52:33;2.60;;;1.30;;
76063;SDS011;64762;52.006;8.424;2022-12-18T03:00:51;5.03;;;1.83;;
76063;SDS011;64762;52.006;8.424;2022-12-18T03:03:29;4.90;;;1.90;;
76063;SDS011;64762;52.006;8.424;2022-12-18T03:06:02;3.25;;;1.65;;
76063;SDS011;64762;52.006;8.424;2022-12-18T03:08:33;3.05;;;1.25;;
76063;SDS011;64762;52.006;8.424;2022-12-18T03:11:12;3.22;;;1.38;;
76063;SDS011;64762;52.006;8.424;2022-12-18T03:16:15;5.10;;;1.85;;
76063;SDS011;64762;52.006;8.424;2022-12-18T03:19:14;2.72;;;1.25;;
76063;SDS011;64762;52.006;8.424;2022-12-18T03:21:51;3.42;;;1.52;;
76063;SDS011;64762;52.006;8.424;2022-12-18T03:24:18;3.50;;;1.50;;
76063;SDS011;64762;52.006;8.424;2022-12-18T03:26:47;4.35;;;1.55;;
76063;SDS011;64762;52.006;8.424;2022-12-18T03:29:18;3.05;;;1.42;;
76063;SDS011;64762;52.006;8.424;2022-12-18T03:31:47;4.43;;;1.55;;
76063;SDS011;64762;52.006;8.424;2022-12-18T03:34:17;2.67;;;1.00;;
76063;SDS011;64762;52.006;8.424;2022-12-18T03:36:46;2.45;;;1.00;;
76063;SDS011;64762;52.006;8.424;2022-12-18T03:39:12;3.33;;;1.50;;
76063;SDS011;64762;52.006;8.424;2022-12-18T03:41:39;3.93;;;1.53;;
76063;SDS011;64762;52.006;8.424;2022-12-18T03:49:35;3.67;;;1.20;;
76063;SDS011;64762;52.006;8.424;2022-12-18T03:52:24;5.03;;;1.90;;
76063;SDS011;64762;52.006;8.424;2022-12-18T03:54:52;3.03;;;1.35;;
76063;SDS011;64762;52.006;8.424;2022-12-18T03:57:23;5.47;;;1.58;;
76063;SDS011;64762;52.006;8.424;2022-12-18T03:59:54;2.47;;;1.42;;
76063;SDS011;64762;52.006;8.424;2022-12-18T04:02:21;1.80;;;0.82;;
76063;SDS011;64762;52.006;8.424;2022-12-18T04:04:48;4.03;;;1.73;;
76063;SDS011;64762;52.006;8.424;2022-12-18T04:07:16;3.30;;;1.65;;
76063;SDS011;64762;52.006;8.424;2022-12-18T04:09:42;2.88;;;1.38;;
76063;SDS011;64762;52.006;8.424;2022-12-18T04:12:08;3.78;;;1.55;;
76063;SDS011;64762;52.006;8.424;2022-12-18T04:14:34;3.30;;;1.40;;
76063;SDS011;64762;52.006;8.424;2022-12-18T04:17:00;3.55;;;1.55;;
76063;SDS011;64762;52.006;8.424;2022-12-18T04:19:26;4.00;;;1.90;;
76063;SDS011;64762;52.006;8.424;2022-12-18T04:21:51;4.23;;;1.70;;
76063;SDS011;64762;52.006;8.424;2022-12-18T04:24:17;3.73;;;1.10;;
76063;SDS011;64762;52.006;8.424;2022-12-18T04:26:42;2.87;;;1.47;;
76063;SDS011;64762;52.006;8.424;2022-12-18T04:29:07;3.57;;;1.77;;
76063;SDS011;64762;52.006;8.424;2022-12-18T04:31:32;4.93;;;1.77;;
76063;SDS011;64762;52.006;8.424;2022-12-18T04:33:58;2.90;;;1.47;;
76063;SDS011;64762;52.006;8.424;2022-12-18T04:36:23;2.75;;;1.48;;
76063;SDS011;64762;52.006;8.424;2022-12-18T04:38:48;4.07;;;1.60;;
76063;SDS011;64762;52.006;8.424;2022-12-18T04:41:14;4.70;;;1.40;;
76063;SDS011;64762;52.006;8.424;2022-12-18T04:43:39;3.53;;;1.48;;
76063;SDS011;64762;52.006;8.424;2022-12-18T04:46:05;4.50;;;1.80;;
76063;SDS011;64762;52.006;8.424;2022-12-18T04:48:31;7.15;;;1.60;;
76063;SDS011;64762;52.006;8.424;2022-12-18T04:50:57;4.70;;;1.70;;
76063;SDS011;64762;52.006;8.424;2022-12-18T04:53:22;5.03;;;2.30;;
76063;SDS011;64762;52.006;8.424;2022-12-18T04:55:48;3.33;;;1.63;;
76063;SDS011;64762;52.006;8.424;2022-12-18T04:58:13;3.60;;;1.90;;
76063;SDS011;64762;52.006;8.424;2022-12-18T05:00:39;4.40;;;1.87;;
76063;SDS011;64762;52.006;8.424;2022-12-18T05:03:04;4.23;;;1.83;;
76063;SDS011;64762;52.006;8.424;2022-12-18T05:05:29;5.87;;;2.40;;
76063;SDS011;64762;52.006;8.424;2022-12-18T05:07:55;4.00;;;1.97;;
76063;SDS011;64762;52.006;8.424;2022-12-18T05:10:20;3.70;;;1.80;;
76063;SDS011;64762;52.006;8.424;2022-12-18T05:12:45;6.27;;;2.17;;
76063;SDS011;64762;52.006;8.424;2022-12-18T05:15:23;6.10;;;2.15;;
76063;SDS011;64762;52.006;8.424;2022-12-18T05:17:48;4.28;;;2.03;;
76063;SDS011;64762;52.006;8.424;2022-12-18T05:20:14;4.20;;;2.07;;
76063;SDS011;64762;52.006;8.424;2022-12-18T05:22:40;3.97;;;2.10;;
76063;SDS011;64762;52.006;8.424;2022-12-18T05:25:05;3.80;;;1.57;;
76063;SDS011;64762;52.006;8.424;2022-12-18T05:27:30;5.10;;;2.35;;
76063;SDS011;64762;52.006;8.424;2022-12-18T05:29:56;6.77;;;2.00;;
76063;SDS011;64762;52.006;8.424;2022-12-18T05:32:21;3.63;;;1.97;;
76063;SDS011;64762;52.006;8.424;2022-12-18T05:34:46;4.03;;;1.97;;
76063;SDS011;64762;52.006;8.424;2022-12-18T05:37:12;4.27;;;2.13;;
76063;SDS011;64762;52.006;8.424;2022-12-18T05:39:37;5.28;;;2.22;;
76063;SDS011;64762;52.006;8.424;2022-12-18T05:42:02;5.37;;;2.13;;
76063;SDS011;64762;52.006;8.424;2022-12-18T05:44:28;4.93;;;2.03;;
76063;SDS011;64762;52.006;8.424;2022-12-18T05:46:53;4.40;;;1.97;;
76063;SDS011;64762;52.006;8.424;2022-12-18T05:49:19;6.05;;;2.85;;
76063;SDS011;64762;52.006;8.424;2022-12-18T05:51:44;5.33;;;2.17;;
76063;SDS011;64762;52.006;8.424;2022-12-18T05:54:10;4.53;;;2.30;;
76063;SDS011;64762;52.006;8.424;2022-12-18T05:56:36;5.35;;;2.50;;
76063;SDS011;64762;52.006;8.424;2022-12-18T05:59:01;4.77;;;2.00;;
76063;SDS011;64762;52.006;8.424;2022-12-18T06:01:26;4.70;;;2.00;;
76063;SDS011;64762;52.006;8.424;2022-12-18T06:03:52;6.32;;;2.92;;
76063;SDS011;64762;52.006;8.424;2022-12-18T06:06:18;5.60;;;3.57;;
76063;SDS011;64762;52.006;8.424;2022-12-18T06:08:45;6.68;;;2.08;;
76063;SDS011;64762;52.006;8.424;2022-12-18T06:11:10;5.43;;;2.60;;
76063;SDS011;64762;52.006;8.424;2022-12-18T06:13:36;6.07;;;3.13;;
76063;SDS011;64762;52.006;8.424;2022-12-18T06:16:05;5.95;;;3.10;;
76063;SDS011;64762;52.006;8.424;2022-12-18T06:18:31;8.40;;;3.63;;
76063;SDS011;64762;52.006;8.424;2022-12-18T06:20:56;6.65;;;2.78;;
76063;SDS011;64762;52.006;8.424;2022-12-18T06:23:22;10.30;;;5.65;;
76063;SDS011;64762;52.006;8.424;2022-12-18T06:25:48;8.82;;;4.45;;
76063;SDS011;64762;52.006;8.424;2022-12-18T06:28:13;7.55;;;4.35;;
76063;SDS011;64762;52.006;8.424;2022-12-18T06:30:38;9.50;;;4.27;;
76063;SDS011;64762;52.006;8.424;2022-12-18T06:33:04;6.03;;;4.00;;
76063;SDS011;64762;52.006;8.424;2022-12-18T06:35:29;5.13;;;2.83;;
76063;SDS011;64762;52.006;8.424;2022-12-18T06:37:54;6.07;;;3.03;;
76063;SDS011;64762;52.006;8.424;2022-12-18T06:40:20;5.57;;;2.90;;
76063;SDS011;64762;52.006;8.424;2022-12-18T06:42:45;4.50;;;2.65;;
76063;SDS011;64762;52.006;8.424;2022-12-18T06:45:11;6.07;;;2.53;;
76063;SDS011;64762;52.006;8.424;2022-12-18T06:47:36;6.47;;;2.37;;
76063;SDS011;64762;52.006;8.424;2022-12-18T06:50:02;6.43;;;3.03;;
76063;SDS011;64762;52.006;8.424;2022-12-18T06:52:27;5.53;;;2.40;;
76063;SDS011;64762;52.006;8.424;2022-12-18T06:54:52;4.73;;;2.40;;
76063;SDS011;64762;52.006;8.424;2022-12-18T06:57:18;6.10;;;2.57;;
76063;SDS011;64762;52.006;8.424;2022-12-18T06:59:43;4.27;;;2.10;;
76063;SDS011;64762;52.006;8.424;2022-12-18T07:02:10;6.50;;;2.87;;
76063;SDS011;64762;52.006;8.424;2022-12-18T07:04:37;7.40;;;3.25;;
76063;SDS011;64762;52.006;8.424;2022-12-18T07:07:02;6.35;;;2.47;;
76063;SDS011;64762;52.006;8.424;2022-12-18T07:09:28;6.15;;;2.85;;
76063;SDS011;64762;52.006;8.424;2022-12-18T07:11:53;7.27;;;2.40;;
76063;SDS011;64762;52.006;8.424;2022-12-18T07:14:19;8.00;;;2.90;;
76063;SDS011;64762;52.006;8.424;2022-12-18T07:16:44;5.82;;;2.53;;
76063;SDS011;64762;52.006;8.424;2022-12-18T07:19:09;4.03;;;2.00;;
76063;SDS011;64762;52.006;8.424;2022-12-18T07:21:35;5.17;;;2.00;;
76063;SDS011;64762;52.006;8.424;2022-12-18T07:24:00;6.17;;;2.53;;
76063;SDS011;64762;52.006;8.424;2022-12-18T07:26:25;6.50;;;2.60;;
76063;SDS011;64762;52.006;8.424;2022-12-18T07:28:53;4.38;;;2.22;;
76063;SDS011;64762;52.006;8.424;2022-12-18T07:31:20;6.45;;;2.00;;
76063;SDS011;64762;52.006;8.424;2022-12-18T07:33:46;5.25;;;2.47;;
76063;SDS011;64762;52.006;8.424;2022-12-18T07:36:12;4.90;;;2.47;;
76063;SDS011;64762;52.006;8.424;2022-12-18T07:38:38;5.15;;;2.50;;
76063;SDS011;64762;52.006;8.424;2022-12-18T07:41:08;10.50;;;4.20;;
76063;SDS011;64762;52.006;8.424;2022-12-18T07:43:34;6.57;;;3.13;;
76063;SDS011;64762;52.006;8.424;2022-12-18T07:46:00;6.90;;;2.72;;
76063;SDS011;64762;52.006;8.424;2022-12-18T07:48:27;4.60;;;2.50;;
76063;SDS011;64762;52.006;8.424;2022-12-18T07:50:52;5.47;;;2.42;;
76063;SDS011;64762;52.006;8.424;2022-12-18T07:53:18;4.77;;;2.00;;
76063;SDS011;64762;52.006;8.424;2022-12-18T07:55:43;6.03;;;2.17;;
76063;SDS011;64762;52.006;8.424;2022-12-18T07:58:08;5.23;;;2.53;;
76063;SDS011;64762;52.006;8.424;2022-12-18T08:00:34;4.57;;;2.22;;
76063;SDS011;64762;52.006;8.424;2022-12-18T08:03:00;5.18;;;2.35;;
76063;SDS011;64762;52.006;8.424;2022-12-18T08:05:25;4.72;;;1.77;;
76063;SDS011;64762;52.006;8.424;2022-12-18T08:07:51;5.85;;;2.08;;
76063;SDS011;64762;52.006;8.424;2022-12-18T08:10:16;4.68;;;1.98;;
76063;SDS011;64762;52.006;8.424;2022-12-18T08:12:42;5.25;;;1.67;;
76063;SDS011;64762;52.006;8.424;2022-12-18T08:15:07;5.00;;;2.23;;
76063;SDS011;64762;52.006;8.424;2022-12-18T08:17:33;5.18;;;1.70;;
76063;SDS011;64762;52.006;8.424;2022-12-18T08:19:58;4.20;;;2.28;;
76063;SDS011;64762;52.006;8.424;2022-12-18T08:22:24;4.40;;;2.03;;
76063;SDS011;64762;52.006;8.424;2022-12-18T08:24:49;4.67;;;2.10;;
76063;SDS011;64762;52.006;8.424;2022-12-18T08:27:14;3.43;;;1.73;;
76063;SDS011;64762;52.006;8.424;2022-12-18T08:29:40;5.07;;;2.13;;
76063;SDS011;64762;52.006;8.424;2022-12-18T08:32:05;3.63;;;1.73;;
76063;SDS011;64762;52.006;8.424;2022-12-18T08:34:31;4.05;;;2.13;;
76063;SDS011;64762;52.006;8.424;2022-12-18T08:36:56;5.00;;;2.27;;
76063;SDS011;64762;52.006;8.424;2022-12-18T08:39:21;3.90;;;1.80;;
76063;SDS011;64762;52.006;8.424;2022-12-18T08:41:46;5.20;;;2.00;;
76063;SDS011;64762;52.006;8.424;2022-12-18T08:44:32;6.03;;;1.70;;
76063;SDS011;64762;52.006;8.424;2022-12-18T08:47:04;3.92;;;2.05;;
76063;SDS011;64762;52.006;8.424;2022-12-18T08:49:30;3.70;;;1.75;;
76063;SDS011;64762;52.006;8.424;2022-12-18T08:51:55;4.37;;;2.13;;
76063;SDS011;64762;52.006;8.424;2022-12-18T08:54:22;7.80;;;3.25;;
76063;SDS011;64762;52.006;8.424;2022-12-18T08:56:48;7.35;;;3.47;;
76063;SDS011;64762;52.006;8.424;2022-12-18T08:59:14;5.78;;;2.15;;
76063;SDS011;64762;52.006;8.424;2022-12-18T09:01:40;4.70;;;1.95;;
76063;SDS011;64762;52.006;8.424;2022-12-18T09:04:05;4.33;;;2.33;;
76063;SDS011;64762;52.006;8.424;2022-12-18T09:06:30;5.93;;;2.40;;
76063;SDS011;64762;52.006;8.424;2022-12-18T09:08:56;4.20;;;1.83;;
76063;SDS011;64762;52.006;8.424;2022-12-18T09:11:23;4.13;;;1.92;;
76063;SDS011;64762;52.006;8.424;2022-12-18T09:13:50;4.28;;;2.17;;
76063;SDS011;64762;52.006;8.424;2022-12-18T09:16:16;6.80;;;2.45;;
76063;SDS011;64762;52.006;8.424;2022-12-18T09:18:41;7.97;;;3.95;;
76063;SDS011;64762;52.006;8.424;2022-12-18T09:21:07;7.80;;;3.45;;
76063;SDS011;64762;52.006;8.424;2022-12-18T09:23:54;4.78;;;2.30;;
76063;SDS011;64762;52.006;8.424;2022-12-18T09:26:20;5.70;;;2.10;;
76063;SDS011;64762;52.006;8.424;2022-12-18T09:28:46;6.07;;;2.17;;
76063;SDS011;64762;52.006;8.424;2022-12-18T09:31:12;4.57;;;2.13;;
76063;SDS011;64762;52.006;8.424;2022-12-18T09:33:37;6.15;;;2.17;;
76063;SDS011;64762;52.006;8.424;2022-12-18T09:36:04;8.60;;;3.90;;
76063;SDS011;64762;52.006;8.424;2022-12-18T09:38:31;7.43;;;3.55;;
76063;SDS011;64762;52.006;8.424;2022-12-18T09:41:03;5.43;;;2.42;;
76063;SDS011;64762;52.006;8.424;2022-12-18T09:43:52;4.88;;;2.63;;
76063;SDS011;64762;52.006;8.424;2022-12-18T09:46:26;4.68;;;2.22;;
76063;SDS011;64762;52.006;8.424;2022-12-18T09:48:54;5.25;;;2.45;;
76063;SDS011;64762;52.006;8.424;2022-12-18T09:51:22;6.80;;;3.22;;
76063;SDS011;64762;52.006;8.424;2022-12-18T09:53:51;4.63;;;2.22;;
76063;SDS011;64762;52.006;8.424;2022-12-18T09:56:20;5.82;;;2.15;;
76063;SDS011;64762;52.006;8.424;2022-12-18T10:01:24;5.72;;;2.30;;
76063;SDS011;64762;52.006;8.424;2022-12-18T10:03:50;6.30;;;2.40;;
76063;SDS011;64762;52.006;8.424;2022-12-18T10:09:05;7.65;;;3.22;;
76063;SDS011;64762;52.006;8.424;2022-12-18T10:11:46;4.55;;;2.40;;
76063;SDS011;64762;52.006;8.424;2022-12-18T10:14:22;4.70;;;2.30;;
76063;SDS011;64762;52.006;8.424;2022-12-18T10:22:25;4.13;;;2.25;;
76063;SDS011;64762;52.006;8.424;2022-12-18T10:27:25;5.93;;;2.78;;
76063;SDS011;64762;52.006;8.424;2022-12-18T10:29:51;4.18;;;2.08;;
76063;SDS011;64762;52.006;8.424;2022-12-18T10:32:19;7.15;;;2.25;;
76063;SDS011;64762;52.006;8.424;2022-12-18T10:34:49;4.63;;;1.60;;
76063;SDS011;64762;52.006;8.424;2022-12-18T10:37:16;4.78;;;2.38;;
76063;SDS011;64762;52.006;8.424;2022-12-18T10:39:45;3.95;;;1.75;;
76063;SDS011;64762;52.006;8.424;2022-12-18T10:42:17;3.97;;;1.88;;
76063;SDS011;64762;52.006;8.424;2022-12-18T10:44:43;4.70;;;1.80;;
76063;SDS011;64762;52.006;8.424;2022-12-18T10:47:11;5.35;;;2.05;;
76063;SDS011;64762;52.006;8.424;2022-12-18T10:49:39;5.07;;;2.30;;
76063;SDS011;64762;52.006;8.424;2022-12-18T10:52:22;4.30;;;2.45;;
76063;SDS011;64762;52.006;8.424;2022-12-18T10:59:52;3.63;;;1.90;;
76063;SDS011;64762;52.006;8.424;2022-12-18T11:05:01;3.15;;;1.58;;
76063;SDS011;64762;52.006;8.424;2022-12-18T11:07:37;4.85;;;2.00;;
76063;SDS011;64762;52.006;8.424;2022-12-18T11:10:16;4.60;;;1.98;;
76063;SDS011;64762;52.006;8.424;2022-12-18T11:12:42;5.75;;;2.30;;
76063;SDS011;64762;52.006;8.424;2022-12-18T11:15:14;4.47;;;2.23;;
76063;SDS011;64762;52.006;8.424;2022-12-18T11:17:41;5.00;;;2.05;;
76063;SDS011;64762;52.006;8.424;2022-12-18T11:20:18;6.03;;;2.00;;
76063;SDS011;64762;52.006;8.424;2022-12-18T11:22:56;5.38;;;2.25;;
76063;SDS011;64762;52.006;8.424;2022-12-18T11:25:30;4.80;;;2.10;;
76063;SDS011;64762;52.006;8.424;2022-12-18T11:28:00;3.70;;;1.67;;
76063;SDS011;64762;52.006;8.424;2022-12-18T11:33:06;4.43;;;1.83;;
76063;SDS011;64762;52.006;8.424;2022-12-18T11:35:37;6.40;;;2.05;;
76063;SDS011;64762;52.006;8.424;2022-12-18T11:38:21;4.00;;;1.80;;
76063;SDS011;64762;52.006;8.424;2022-12-18T11:40:55;5.90;;;1.67;;
76063;SDS011;64762;52.006;8.424;2022-12-18T11:43:28;5.55;;;1.90;;
76063;SDS011;64762;52.006;8.424;2022-12-18T11:46:02;4.70;;;1.35;;
76063;SDS011;64762;52.006;8.424;2022-12-18T11:48:32;2.95;;;1.35;;
76063;SDS011;64762;52.006;8.424;2022-12-18T11:51:00;3.95;;;1.70;;
76063;SDS011;64762;52.006;8.424;2022-12-18T11:53:28;4.05;;;1.80;;
76063;SDS011;64762;52.006;8.424;2022-12-18T11:58:44;3.85;;;1.90;;
76063;SDS011;64762;52.006;8.424;2022-12-18T12:04:04;4.95;;;1.90;;
76063;SDS011;64762;52.006;8.424;2022-12-18T12:15:22;3.80;;;1.60;;
76063;SDS011;64762;52.006;8.424;2022-12-18T12:20:46;2.60;;;1.23;;
76063;SDS011;64762;52.006;8.424;2022-12-18T12:34:07;6.60;;;3.63;;
76063;SDS011;64762;52.006;8.424;2022-12-18T12:36:45;4.85;;;2.10;;
76063;SDS011;64762;52.006;8.424;2022-12-18T12:39:23;3.67;;;1.52;;
76063;SDS011;64762;52.006;8.424;2022-12-18T12:41:53;3.65;;;1.67;;
76063;SDS011;64762;52.006;8.424;2022-12-18T12:44:39;3.22;;;1.42;;
76063;SDS011;64762;52.006;8.424;2022-12-18T12:47:13;4.15;;;1.55;;
76063;SDS011;64762;52.006;8.424;2022-12-18T12:49:41;4.85;;;2.10;;
76063;SDS011;64762;52.006;8.424;2022-12-18T12:52:12;3.67;;;1.70;;
76063;SDS011;64762;52.006;8.424;2022-12-18T12:54:40;4.93;;;1.60;;
76063;SDS011;64762;52.006;8.424;2022-12-18T12:57:10;5.80;;;1.98;;
76063;SDS011;64762;52.006;8.424;2022-12-18T13:05:11;4.75;;;1.85;;
76063;SDS011;64762;52.006;8.424;2022-12-18T13:08:11;3.72;;;1.88;;
76063;SDS011;64762;52.006;8.424;2022-12-18T13:10:46;4.00;;;1.80;;
76063;SDS011;64762;52.006;8.424;2022-12-18T13:13:12;4.10;;;1.70;;
76063;SDS011;64762;52.006;8.424;2022-12-18T13:15:41;4.35;;;1.83;;
76063;SDS011;64762;52.006;8.424;2022-12-18T13:20:34;3.70;;;1.60;;
76063;SDS011;64762;52.006;8.424;2022-12-18T13:23:01;3.42;;;1.63;;
76063;SDS011;64762;52.006;8.424;2022-12-18T13:25:49;3.47;;;1.40;;
76063;SDS011;64762;52.006;8.424;2022-12-18T13:28:15;3.72;;;1.70;;
76063;SDS011;64762;52.006;8.424;2022-12-18T13:30:43;6.60;;;2.38;;
76063;SDS011;64762;52.006;8.424;2022-12-18T13:35:40;3.40;;;1.70;;
76063;SDS011;64762;52.006;8.424;2022-12-18T13:48:51;2.75;;;1.40;;
76063;SDS011;64762;52.006;8.424;2022-12-18T13:51:19;3.92;;;1.35;;
76063;SDS011;64762;52.006;8.424;2022-12-18T13:53:55;3.78;;;1.50;;
76063;SDS011;64762;52.006;8.424;2022-12-18T13:56:25;2.88;;;1.40;;
76063;SDS011;64762;52.006;8.424;2022-12-18T13:59:11;3.67;;;1.48;;
76063;SDS011;64762;52.006;8.424;2022-12-18T14:01:41;3.30;;;1.38;;
76063;SDS011;64762;52.006;8.424;2022-12-18T14:04:26;3.45;;;1.52;;
76063;SDS011;64762;52.006;8.424;2022-12-18T14:06:57;4.25;;;1.88;;
76063;SDS011;64762;52.006;8.424;2022-12-18T14:09:30;4.05;;;1.60;;
76063;SDS011;64762;52.006;8.424;2022-12-18T14:11:59;4.22;;;1.42;;
76063;SDS011;64762;52.006;8.424;2022-12-18T14:14:44;5.82;;;2.40;;
76063;SDS011;64762;52.006;8.424;2022-12-18T14:17:12;6.18;;;2.33;;
76063;SDS011;64762;52.006;8.424;2022-12-18T14:19:40;4.72;;;2.60;;
76063;SDS011;64762;52.006;8.424;2022-12-18T14:22:11;4.45;;;1.73;;
76063;SDS011;64762;52.006;8.424;2022-12-18T14:24:45;3.80;;;1.80;;
76063;SDS011;64762;52.006;8.424;2022-12-18T14:27:22;3.00;;;1.35;;
76063;SDS011;64762;52.006;8.424;2022-12-18T14:29:48;3.17;;;1.50;;
76063;SDS011;64762;52.006;8.424;2022-12-18T14:32:15;4.70;;;1.50;;
76063;SDS011;64762;52.006;8.424;2022-12-18T14:34:45;3.85;;;1.80;;
76063;SDS011;64762;52.006;8.424;2022-12-18T14:37:11;5.05;;;2.13;;
76063;SDS011;64762;52.006;8.424;2022-12-18T14:39:39;3.30;;;1.50;;
76063;SDS011;64762;52.006;8.424;2022-12-18T14:42:05;3.35;;;1.70;;
76063;SDS011;64762;52.006;8.424;2022-12-18T14:44:30;4.50;;;2.17;;
76063;SDS011;64762;52.006;8.424;2022-12-18T14:46:55;4.77;;;1.70;;
76063;SDS011;64762;52.006;8.424;2022-12-18T14:51:49;4.18;;;1.50;;
76063;SDS011;64762;52.006;8.424;2022-12-18T14:54:16;5.63;;;1.60;;
76063;SDS011;64762;52.006;8.424;2022-12-18T14:56:44;5.28;;;1.95;;
76063;SDS011;64762;52.006;8.424;2022-12-18T14:59:19;4.07;;;2.00;;
76063;SDS011;64762;52.006;8.424;2022-12-18T15:04:43;4.35;;;1.67;;
76063;SDS011;64762;52.006;8.424;2022-12-18T15:07:13;3.55;;;1.65;;
76063;SDS011;64762;52.006;8.424;2022-12-18T15:09:41;8.10;;;2.95;;
76063;SDS011;64762;52.006;8.424;2022-12-18T15:12:24;3.83;;;1.83;;
76063;SDS011;64762;52.006;8.424;2022-12-18T15:14:51;4.45;;;1.85;;
76063;SDS011;64762;52.006;8.424;2022-12-18T15:17:21;5.73;;;2.03;;
76063;SDS011;64762;52.006;8.424;2022-12-18T15:19:48;4.60;;;2.30;;
76063;SDS011;64762;52.006;8.424;2022-12-18T15:25:00;7.00;;;2.40;;
76063;SDS011;64762;52.006;8.424;2022-12-18T15:27:27;4.15;;;2.25;;
76063;SDS011;64762;52.006;8.424;2022-12-18T15:32:32;6.30;;;2.42;;
76063;SDS011;64762;52.006;8.424;2022-12-18T15:37:35;5.32;;;2.33;;
76063;SDS011;64762;52.006;8.424;2022-12-18T15:40:01;4.18;;;2.35;;
76063;SDS011;64762;52.006;8.424;2022-12-18T15:42:28;5.15;;;2.05;;
76063;SDS011;64762;52.006;8.424;2022-12-18T15:45:12;4.78;;;2.53;;
76063;SDS011;64762;52.006;8.424;2022-12-18T15:47:38;5.07;;;2.40;;
76063;SDS011;64762;52.006;8.424;2022-12-18T15:50:04;4.35;;;2.22;;
76063;SDS011;64762;52.006;8.424;2022-12-18T15:52:31;4.38;;;2.13;;
76063;SDS011;64762;52.006;8.424;2022-12-18T15:55:05;3.88;;;2.20;;
76063;SDS011;64762;52.006;8.424;2022-12-18T15:57:53;4.95;;;2.55;;
76063;SDS011;64762;52.006;8.424;2022-12-18T16:00:19;7.30;;;1.93;;
76063;SDS011;64762;52.006;8.424;2022-12-18T16:02:44;5.60;;;2.60;;
76063;SDS011;64762;52.006;8.424;2022-12-18T16:05:13;5.30;;;2.83;;
76063;SDS011;64762;52.006;8.424;2022-12-18T16:10:05;3.07;;;1.47;;
76063;SDS011;64762;52.006;8.424;2022-12-18T16:12:31;5.97;;;2.50;;
76063;SDS011;64762;52.006;8.424;2022-12-18T16:14:56;5.80;;;2.90;;
76063;SDS011;64762;52.006;8.424;2022-12-18T16:17:21;5.37;;;2.80;;
76063;SDS011;64762;52.006;8.424;2022-12-18T16:19:47;6.83;;;2.83;;
76063;SDS011;64762;52.006;8.424;2022-12-18T16:22:19;6.20;;;2.90;;
76063;SDS011;64762;52.006;8.424;2022-12-18T16:24:46;8.05;;;3.80;;
76063;SDS011;64762;52.006;8.424;2022-12-18T16:27:11;5.45;;;3.15;;
76063;SDS011;64762;52.006;8.424;2022-12-18T16:29:37;4.20;;;2.10;;
76063;SDS011;64762;52.006;8.424;2022-12-18T16:32:02;5.33;;;2.83;;
76063;SDS011;64762;52.006;8.424;2022-12-18T16:34:28;5.40;;;2.77;;
76063;SDS011;64762;52.006;8.424;2022-12-18T16:36:59;5.63;;;2.65;;
76063;SDS011;64762;52.006;8.424;2022-12-18T16:41:51;4.10;;;2.40;;
76063;SDS011;64762;52.006;8.424;2022-12-18T16:44:16;5.70;;;2.73;;
76063;SDS011;64762;52.006;8.424;2022-12-18T16:46:42;6.47;;;2.67;;
76063;SDS011;64762;52.006;8.424;2022-12-18T16:49:10;5.13;;;2.60;;
76063;SDS011;64762;52.006;8.424;2022-12-18T16:51:36;5.15;;;2.92;;
76063;SDS011;64762;52.006;8.424;2022-12-18T16:54:01;8.13;;;3.80;;
76063;SDS011;64762;52.006;8.424;2022-12-18T16:56:26;7.90;;;3.28;;